Date,TemperatureHighF,TemperatureAvgF,TemperatureLowF,DewpointHighF,DewpointAvgF,DewpointLowF,HumidityHigh,HumidityAvg,HumidityLow,PressureMaxIn,PressureMinIn,WindSpeedMaxMPH,WindSpeedAvgMPH,GustSpeedMaxMPH,PrecipitationSumIn
2013-5-1,82.8,65.8,47.8,52.1,33.5,15.9,75,39,9,29.23,29.09,8,1,8,0.00
2013-5-2,79.7,67.1,51.1,38.2,23.4,11.6,58,23,10,29.26,29.15,10,1,10,0.00
2013-5-3,77.0,65.9,53.4,32.5,19.1,7.2,37,18,8,29.15,29.09,12,1,12,0.00
2013-5-4,70.0,61.5,50.2,33.2,17.5,6.0,47,21,9,29.15,29.09,8,1,8,0.00
2013-5-5,72.9,60.9,46.4,34.3,17.3,5.8,52,22,9,29.12,29.03,9,1,9,0.00
2013-5-6,75.0,60.9,45.1,28.8,19.5,9.6,48,23,10,29.06,28.97,7,1,7,0.00
2013-5-7,76.8,63.7,48.0,34.9,24.1,13.1,40,25,10,29.06,29.00,9,1,9,0.00
2013-5-8,81.1,66.2,51.8,43.0,26.0,14.9,40,24,9,29.03,28.94,6,0,6,0.00
2013-5-9,82.9,67.8,50.0,52.4,24.9,8.8,73,29,6,28.97,28.88,6,0,6,0.00
2013-5-10,68.4,57.4,41.2,57.5,39.2,12.5,77,53,13,28.91,28.76,8,1,8,0.28
2013-5-11,62.8,48.0,38.7,35.2,28.6,17.8,70,50,24,28.88,28.70,10,1,10,0.00
2013-5-12,49.5,41.5,34.3,21.5,13.3,-0.7,50,33,16,29.09,28.85,9,2,9,0.00
2013-5-13,57.2,43.5,32.0,17.0,6.9,-0.2,40,24,12,29.15,29.06,9,1,9,0.00
2013-5-14,72.9,52.9,39.2,30.6,19.8,9.8,43,29,10,29.12,28.73,63,1,63,0.04
2013-5-15,82.9,69.0,51.8,50.9,25.7,8.6,70,27,6,28.79,28.59,9,1,9,0.00
2013-5-16,82.4,65.8,49.6,35.0,19.5,6.7,51,22,6,29.06,28.79,8,1,8,0.00
2013-5-17,72.7,59.2,46.6,28.2,21.0,8.5,43,25,9,29.18,29.03,8,0,8,0.00
2013-5-19,87.6,71.3,52.2,44.4,34.8,22.7,47,29,11,29.06,28.88,8,0,8,0.00
2013-5-20,89.1,75.2,59.5,56.9,45.2,28.1,73,38,13,28.97,28.79,8,1,8,0.12
2013-5-21,85.1,75.2,65.3,59.8,44.8,28.1,68,38,13,28.85,28.73,8,0,8,0.28
2013-5-22,79.9,68.9,63.1,61.1,50.1,33.5,79,55,20,28.76,28.61,8,1,8,0.04
2013-5-23,64.0,53.3,41.2,54.2,41.3,22.1,77,64,44,29.12,28.70,10,2,10,0.08
2013-5-24,55.4,45.8,36.7,23.5,16.9,6.9,54,33,15,29.35,29.12,9,2,9,0.00
2013-5-25,40.1,38.0,36.7,21.2,20.7,20.1,53,49,46,29.38,29.35,0,0,0,0.00
2013-5-28,68.0,68.0,68.0,61.6,61.6,61.6,80,80,80,28.82,28.82,0,0,0,0.00
2013-5-29,84.4,72.1,63.1,63.2,52.0,37.1,80,53,20,29.00,28.76,6,0,6,0.08
2013-5-30,87.6,70.8,61.5,66.7,54.6,39.9,80,61,19,29.06,29.00,8,0,8,0.63
2013-5-31,82.2,71.9,64.6,63.0,54.3,44.0,80,57,28,29.03,28.88,11,1,11,0.59